Ocean City (26N)
Ocean City, NJ
Field Elevation: 8
Lat: 39°15.81N  Long: 74°36.45W
CTAF/Unicom Freq: 122.7000
   
     For Weather-by-Phone, call (609) 398-0705
Weather Advisories
2018-10-21   04:16 Z
Altimeter 29.68" Hg
Wind 300° @ 12 KT
Gusts 21 KT
Visibility 10 SM
Ceiling FEW027 BKN042
Temperature 12° C (54° F)
Dewpoint 9° C (48° F)
Relative Humidity 82%
Density Altitude --
Condensation Altitude 1,400 feet
Wind and Runways
Indicated Runway = 24
Headwind = 6 kt
Crosswind = 10 kt
History
 
 
 
More Info
All DigiWx sites map
Weather Radar
NOAA Forecast
 
Airport IQ 5010
(HMIEM) Shock Trauma Ctr
(PN44) Upper Gwynedd Heliport
 
about DigiWx
 
FAA Disclaimer: The data displayed is for advisory purposes only and is not to be used for flight planning or operations. For official data, please call (609) 398-0705 to hear the current automated AWOS voice message.
  METAR 26N 210416Z AUTO 30012G21KT VIS 10 SM FEW027 BKN042 12/09 A2968